createdAt,value
2023-05-05T00:00:54.930Z,799.00
2023-05-05T00:01:55.001Z,803.00
2023-05-05T00:02:55.075Z,788.00
2023-05-05T00:03:54.960Z,806.00
2023-05-05T00:04:54.956Z,810.00
2023-05-05T00:05:54.936Z,824.00
2023-05-05T00:06:54.999Z,811.00
2023-05-05T00:07:54.918Z,806.00
2023-05-05T00:08:54.892Z,792.00
2023-05-05T00:09:54.877Z,792.00
2023-05-05T00:10:55.879Z,837.00
2023-05-05T00:11:55.941Z,812.00
2023-05-05T00:12:54.941Z,804.00
2023-05-05T00:13:55.128Z,798.00
2023-05-05T00:14:55.058Z,820.00
2023-05-05T00:15:54.874Z,802.00
2023-05-05T00:16:55.911Z,776.00
2023-05-05T00:17:55.987Z,816.00
2023-05-05T00:18:55.007Z,806.00
2023-05-05T00:19:54.996Z,805.00
2023-05-05T00:20:54.930Z,780.00
2023-05-05T00:21:54.981Z,792.00
2023-05-05T00:22:55.010Z,805.00
2023-05-05T00:23:55.985Z,827.00
2023-05-05T00:24:55.003Z,786.00
2023-05-05T00:25:54.958Z,774.00
2023-05-05T00:26:54.946Z,796.00
2023-05-05T00:27:55.011Z,808.00
2023-05-05T00:28:54.924Z,796.00
2023-05-05T00:29:54.931Z,831.00
2023-05-05T00:30:56.103Z,816.00
2023-05-05T00:31:54.958Z,821.00
2023-05-05T00:32:54.996Z,762.00
2023-05-05T00:33:56.065Z,822.00
2023-05-05T00:34:55.977Z,813.00
2023-05-05T00:35:56.040Z,780.00
2023-05-05T00:36:55.068Z,807.00
2023-05-05T00:37:55.125Z,819.00
2023-05-05T00:38:55.137Z,819.00
2023-05-05T00:39:56.087Z,785.00
2023-05-05T00:40:55.109Z,818.00
2023-05-05T00:41:56.019Z,803.00
2023-05-05T00:42:56.114Z,789.00
2023-05-05T00:43:55.013Z,795.00
2023-05-05T00:44:55.119Z,782.00
2023-05-05T00:45:55.112Z,797.00
2023-05-05T00:46:55.027Z,784.00
2023-05-05T00:47:55.080Z,795.00
2023-05-05T00:48:55.067Z,824.00
2023-05-05T00:49:56.022Z,782.00
2023-05-05T00:50:55.084Z,791.00
2023-05-05T00:51:55.033Z,778.00
2023-05-05T00:52:56.048Z,823.00
2023-05-05T00:53:55.048Z,766.00
2023-05-05T00:54:56.142Z,799.00
2023-05-05T00:55:55.087Z,776.00
2023-05-05T00:56:56.128Z,822.00
2023-05-05T00:57:55.132Z,781.00
2023-05-05T00:58:55.069Z,809.00
2023-05-05T00:59:56.038Z,794.00
2023-05-05T01:00:56.094Z,771.00
2023-05-05T01:01:56.152Z,817.00
2023-05-05T01:02:55.191Z,787.00
2023-05-05T01:03:55.151Z,770.00
2023-05-05T01:04:56.120Z,772.00
2023-05-05T01:05:55.155Z,786.00
2023-05-05T01:06:55.113Z,775.00
2023-05-05T01:07:55.061Z,785.00
2023-05-05T01:08:55.197Z,801.00
2023-05-05T01:10:04.475Z,811.00
2023-05-05T01:10:56.045Z,812.00
2023-05-05T01:11:55.078Z,813.00
2023-05-05T01:12:55.088Z,802.00
2023-05-05T01:13:55.007Z,780.00
2023-05-05T01:14:55.084Z,812.00
2023-05-05T01:15:55.066Z,803.00
2023-05-05T01:16:54.970Z,809.00
2023-05-05T01:17:56.022Z,804.00
2023-05-05T01:18:54.981Z,782.00
2023-05-05T01:19:55.036Z,812.00
2023-05-05T01:20:54.942Z,802.00
2023-05-05T01:21:56.038Z,777.00
2023-05-05T01:22:55.928Z,778.00
2023-05-05T01:23:56.024Z,796.00
2023-05-05T01:24:55.005Z,797.00
2023-05-05T01:25:54.997Z,818.00
2023-05-05T01:26:54.974Z,801.00
2023-05-05T01:27:56.071Z,780.00
2023-05-05T01:28:55.976Z,762.00
2023-05-05T01:29:55.024Z,782.00
2023-05-05T01:30:54.961Z,797.00
2023-05-05T01:31:54.930Z,805.00
2023-05-05T01:32:55.054Z,827.00
2023-05-05T01:33:54.937Z,792.00
2023-05-05T01:34:55.928Z,750.00
2023-05-05T01:35:55.952Z,782.00
2023-05-05T01:36:55.920Z,807.00
2023-05-05T01:37:55.835Z,799.00
2023-05-05T01:38:54.902Z,805.00
2023-05-05T01:39:54.914Z,752.00
2023-05-05T01:40:54.820Z,778.00
2023-05-05T01:41:55.897Z,785.00
2023-05-05T01:42:54.823Z,814.00
2023-05-05T01:43:54.885Z,801.00
2023-05-05T01:44:54.894Z,778.00
2023-05-05T01:45:54.966Z,786.00
2023-05-05T01:46:55.892Z,785.00
2023-05-05T01:47:55.001Z,813.00
2023-05-05T01:48:55.927Z,787.00
2023-05-05T01:49:55.092Z,777.00
2023-05-05T01:50:54.865Z,776.00
2023-05-05T01:51:55.940Z,790.00
2023-05-05T01:52:54.876Z,763.00
2023-05-05T01:53:54.937Z,801.00
2023-05-05T01:54:55.019Z,816.00
2023-05-05T01:55:54.912Z,783.00
2023-05-05T01:56:55.899Z,781.00
2023-05-05T01:57:55.925Z,807.00
2023-05-05T01:58:54.942Z,783.00
2023-05-05T01:59:56.084Z,791.00
2023-05-05T02:00:54.953Z,771.00
2023-05-05T02:01:55.923Z,776.00
2023-05-05T02:02:56.148Z,782.00
2023-05-05T02:03:56.026Z,788.00
2023-05-05T02:04:54.953Z,807.00
2023-05-05T02:05:55.982Z,783.00
2023-05-05T02:06:55.970Z,790.00
2023-05-05T02:07:55.967Z,769.00
2023-05-05T02:08:55.049Z,755.00
2023-05-05T02:09:55.083Z,779.00
2023-05-05T02:10:55.067Z,778.00
2023-05-05T02:11:55.073Z,801.00
2023-05-05T02:12:55.061Z,781.00
2023-05-05T02:13:55.029Z,763.00
2023-05-05T02:14:55.101Z,797.00
2023-05-05T02:15:55.013Z,765.00
2023-05-05T02:16:55.067Z,754.00
2023-05-05T02:17:55.059Z,753.00
2023-05-05T02:18:55.968Z,785.00
2023-05-05T02:19:55.099Z,772.00
2023-05-05T02:20:54.985Z,738.00
2023-05-05T02:21:55.004Z,766.00
2023-05-05T02:22:56.084Z,756.00
2023-05-05T02:23:55.044Z,788.00
2023-05-05T02:24:54.996Z,776.00
2023-05-05T02:25:55.072Z,777.00
2023-05-05T02:26:55.047Z,779.00
2023-05-05T02:27:54.972Z,777.00
2023-05-05T02:28:56.090Z,764.00
2023-05-05T02:29:55.019Z,757.00
2023-05-05T02:30:55.051Z,762.00
2023-05-05T02:31:55.980Z,789.00
2023-05-05T02:32:55.018Z,757.00
2023-05-05T02:33:54.969Z,768.00
2023-05-05T02:34:55.991Z,793.00
2023-05-05T02:35:55.966Z,769.00
2023-05-05T02:36:56.045Z,798.00
2023-05-05T02:37:56.048Z,770.00
2023-05-05T02:38:54.975Z,768.00
2023-05-05T02:39:56.008Z,746.00
2023-05-05T02:40:54.972Z,756.00
2023-05-05T02:41:55.086Z,770.00
2023-05-05T02:42:55.174Z,746.00
2023-05-05T02:43:54.976Z,764.00
2023-05-05T02:44:55.107Z,769.00
2023-05-05T02:45:54.999Z,748.00
2023-05-05T02:46:56.230Z,774.00
2023-05-05T02:47:56.158Z,767.00
2023-05-05T02:48:55.087Z,728.00
2023-05-05T02:49:55.070Z,745.00
2023-05-05T02:50:55.079Z,755.00
2023-05-05T02:51:55.104Z,773.00
2023-05-05T02:52:55.028Z,768.00
2023-05-05T02:53:56.054Z,725.00
2023-05-05T02:54:55.132Z,787.00
2023-05-05T02:55:55.130Z,782.00
2023-05-05T02:56:56.112Z,749.00
2023-05-05T02:57:55.145Z,737.00
2023-05-05T02:58:55.114Z,776.00
2023-05-05T02:59:55.121Z,790.00
2023-05-05T03:00:55.143Z,768.00
2023-05-05T03:01:55.165Z,771.00
2023-05-05T03:02:55.280Z,780.00
2023-05-05T03:03:55.103Z,748.00
2023-05-05T03:04:55.057Z,757.00
2023-05-05T03:05:56.078Z,728.00
2023-05-05T03:06:56.060Z,746.00
2023-05-05T03:07:55.163Z,753.00
2023-05-05T03:08:55.079Z,735.00
2023-05-05T03:09:56.143Z,747.00
2023-05-05T03:10:55.187Z,753.00
2023-05-05T03:11:55.233Z,779.00
2023-05-05T03:12:56.160Z,717.00
2023-05-05T03:13:55.152Z,749.00
2023-05-05T03:14:55.098Z,750.00
2023-05-05T03:15:56.223Z,717.00
2023-05-05T03:16:55.160Z,737.00
2023-05-05T03:17:55.199Z,749.00
2023-05-05T03:18:55.173Z,752.00
2023-05-05T03:19:56.180Z,750.00
2023-05-05T03:20:56.240Z,741.00
2023-05-05T03:21:55.132Z,733.00
2023-05-05T03:22:55.170Z,739.00
2023-05-05T03:23:55.193Z,768.00
2023-05-05T03:24:56.197Z,762.00
2023-05-05T03:25:55.217Z,760.00
2023-05-05T03:26:55.189Z,729.00
2023-05-05T03:27:55.102Z,727.00
2023-05-05T03:28:55.181Z,719.00
2023-05-05T03:29:55.195Z,758.00
2023-05-05T03:30:56.113Z,773.00
2023-05-05T03:31:56.208Z,762.00
2023-05-05T03:32:56.161Z,766.00
2023-05-05T03:33:55.234Z,758.00
2023-05-05T03:34:55.220Z,737.00
2023-05-05T03:35:55.146Z,734.00
2023-05-05T03:36:56.137Z,748.00
2023-05-05T03:37:55.146Z,749.00
2023-05-05T03:38:55.285Z,774.00
2023-05-05T03:39:56.275Z,742.00
2023-05-05T03:40:55.252Z,739.00
2023-05-05T03:41:55.283Z,715.00
2023-05-05T03:42:55.172Z,737.00
2023-05-05T03:43:56.505Z,758.00
2023-05-05T03:44:56.310Z,747.00
2023-05-05T03:45:56.214Z,743.00
2023-05-05T03:46:55.221Z,730.00
2023-05-05T03:47:55.281Z,720.00
2023-05-05T03:48:55.211Z,716.00
2023-05-05T03:49:56.221Z,754.00
2023-05-05T03:50:56.230Z,754.00
2023-05-05T03:51:55.246Z,759.00
2023-05-05T03:52:55.258Z,728.00
2023-05-05T03:53:55.254Z,737.00
2023-05-05T03:54:56.311Z,752.00
2023-05-05T03:55:55.286Z,724.00
2023-05-05T03:56:56.299Z,716.00
2023-05-05T03:57:55.286Z,762.00
2023-05-05T03:58:56.283Z,729.00
2023-05-05T03:59:56.307Z,767.00
2023-05-05T04:00:55.327Z,728.00
2023-05-05T04:01:55.378Z,720.00
2023-05-05T04:02:55.483Z,728.00
2023-05-05T04:03:55.614Z,732.00
2023-05-05T04:04:56.431Z,719.00
2023-05-05T04:05:55.371Z,752.00
2023-05-05T04:06:56.397Z,721.00
2023-05-05T04:07:56.442Z,729.00
2023-05-05T04:08:56.423Z,732.00
2023-05-05T04:09:56.482Z,749.00
2023-05-05T04:10:55.443Z,732.00
2023-05-05T04:11:56.447Z,758.00
2023-05-05T04:12:55.603Z,720.00
2023-05-05T04:13:55.521Z,729.00
2023-05-05T04:14:56.519Z,733.00
2023-05-05T04:15:56.604Z,722.00
2023-05-05T04:16:55.563Z,749.00
2023-05-05T04:17:55.747Z,739.00
2023-05-05T04:18:55.588Z,749.00
2023-05-05T04:19:55.584Z,740.00
2023-05-05T04:20:55.593Z,745.00
2023-05-05T04:21:56.661Z,752.00
2023-05-05T04:22:55.688Z,743.00
2023-05-05T04:23:55.592Z,716.00
2023-05-05T04:24:56.664Z,728.00
2023-05-05T04:25:55.759Z,743.00
2023-05-05T04:26:55.697Z,743.00
2023-05-05T04:27:56.682Z,726.00
2023-05-05T04:28:56.726Z,722.00
2023-05-05T04:29:55.704Z,721.00
2023-05-05T04:30:56.840Z,747.00
2023-05-05T04:31:55.797Z,760.00
2023-05-05T04:32:56.824Z,704.00
2023-05-05T04:33:55.842Z,724.00
2023-05-05T04:34:55.888Z,752.00
2023-05-05T04:35:55.933Z,733.00
2023-05-05T04:36:55.916Z,744.00
2023-05-05T04:37:55.805Z,706.00
2023-05-05T04:38:56.962Z,734.00
2023-05-05T04:39:55.887Z,713.00
2023-05-05T04:40:55.957Z,708.00
2023-05-05T04:41:55.927Z,709.00
2023-05-05T04:42:55.938Z,715.00
2023-05-05T04:43:55.895Z,706.00
2023-05-05T04:44:55.926Z,723.00
2023-05-05T04:45:55.995Z,744.00
2023-05-05T04:46:56.034Z,724.00
2023-05-05T04:47:56.060Z,738.00
2023-05-05T04:48:55.988Z,712.00
2023-05-05T04:49:57.111Z,668.00
2023-05-05T04:50:55.969Z,717.00
2023-05-05T04:51:56.068Z,706.00
2023-05-05T04:52:56.059Z,700.00
2023-05-05T04:53:57.047Z,711.00
2023-05-05T04:54:57.039Z,678.00
2023-05-05T04:55:57.091Z,715.00
2023-05-05T04:56:57.027Z,714.00
2023-05-05T04:57:57.064Z,715.00
2023-05-05T04:58:57.022Z,700.00
2023-05-05T04:59:56.090Z,712.00
2023-05-05T05:00:56.093Z,714.00
2023-05-05T05:01:56.135Z,736.00
2023-05-05T05:02:57.102Z,719.00
2023-05-05T05:03:56.174Z,706.00
2023-05-05T05:04:56.106Z,719.00
2023-05-05T05:05:56.155Z,701.00
2023-05-05T05:06:58.961Z,705.00
2023-05-05T05:07:56.116Z,707.00
2023-05-05T05:08:56.191Z,722.00
2023-05-05T05:09:56.068Z,664.00
2023-05-05T05:10:57.090Z,686.00
2023-05-05T05:11:57.126Z,716.00
2023-05-05T05:12:56.128Z,693.00
2023-05-05T05:13:56.056Z,656.00
2023-05-05T05:14:57.067Z,663.00
2023-05-05T05:15:57.207Z,663.00
2023-05-05T05:16:56.089Z,663.00
2023-05-05T05:17:56.055Z,665.00
2023-05-05T05:18:56.019Z,681.00
2023-05-05T05:19:57.041Z,678.00
2023-05-05T05:20:56.002Z,678.00
2023-05-05T05:21:57.090Z,688.00
2023-05-05T05:22:55.950Z,664.00
2023-05-05T05:23:57.024Z,694.00
2023-05-05T05:24:55.955Z,712.00
2023-05-05T05:25:56.029Z,730.00
2023-05-05T05:26:55.953Z,697.00
2023-05-05T05:28:08.848Z,677.00
2023-05-05T05:28:57.008Z,679.00
2023-05-05T05:29:56.964Z,689.00
2023-05-05T05:30:55.988Z,695.00
2023-05-05T05:31:58.253Z,715.00
2023-05-05T05:32:56.918Z,735.00
2023-05-05T05:33:57.127Z,731.00
2023-05-05T05:34:55.947Z,713.00
2023-05-05T05:35:56.958Z,739.00
2023-05-05T05:36:55.959Z,738.00
2023-05-05T05:37:56.083Z,732.00
2023-05-05T05:38:56.618Z,734.00
2023-05-05T05:39:56.050Z,713.00
2023-05-05T05:40:56.388Z,735.00
2023-05-05T05:41:57.307Z,698.00
2023-05-05T05:42:56.549Z,698.00
2023-05-05T05:43:57.329Z,730.00
2023-05-05T05:44:56.416Z,713.00
2023-05-05T05:45:56.270Z,737.00
2023-05-05T05:46:56.205Z,733.00
2023-05-05T05:47:57.242Z,751.00
2023-05-05T05:48:56.681Z,749.00
2023-05-05T05:49:57.489Z,759.00
2023-05-05T05:50:57.447Z,793.00
2023-05-05T05:51:57.338Z,834.00
2023-05-05T05:52:57.611Z,853.00
2023-05-05T05:53:58.891Z,874.00
2023-05-05T05:54:57.061Z,875.00
2023-05-05T05:55:56.993Z,882.00
2023-05-05T08:43:54.893Z,500.00
2023-05-05T08:44:54.639Z,500.00
2023-05-05T08:45:54.608Z,500.00
2023-05-05T08:46:54.595Z,500.00
2023-05-05T08:47:54.654Z,500.00
2023-05-05T08:48:54.610Z,438.00
2023-05-05T08:49:54.563Z,400.00
2023-05-05T08:50:55.021Z,400.00
2023-05-05T08:51:54.579Z,400.00
2023-05-05T08:52:54.543Z,439.00
2023-05-05T08:53:55.682Z,449.00
2023-05-05T08:54:54.572Z,417.00
2023-05-05T08:55:54.596Z,428.00
2023-05-05T08:56:55.545Z,400.00
2023-05-05T08:57:54.488Z,400.00
2023-05-05T08:58:55.768Z,432.00
2023-05-05T08:59:54.618Z,452.00
2023-05-05T09:00:54.572Z,501.00
2023-05-05T09:01:54.597Z,499.00
2023-05-05T09:02:54.643Z,506.00
2023-05-05T09:03:54.505Z,496.00
2023-05-05T09:04:54.452Z,518.00
2023-05-05T09:05:55.479Z,543.00
2023-05-05T09:06:55.459Z,531.00
2023-05-05T09:07:54.526Z,500.00
2023-05-05T09:08:57.505Z,500.00
2023-05-05T09:09:55.398Z,479.00
2023-05-05T09:10:54.473Z,443.00
2023-05-05T09:11:55.442Z,431.00
2023-05-05T09:12:55.469Z,425.00
2023-05-05T09:13:55.363Z,428.00
2023-05-05T09:14:57.241Z,472.00
2023-05-05T09:15:54.477Z,455.00
2023-05-05T09:16:54.425Z,456.00
2023-05-05T09:17:54.404Z,443.00
2023-05-05T09:18:55.368Z,437.00
2023-05-05T09:19:54.385Z,440.00
2023-05-05T09:20:54.396Z,500.00
2023-05-05T09:21:55.314Z,502.00
2023-05-05T09:22:54.297Z,506.00
2023-05-05T09:23:54.566Z,500.00
2023-05-05T09:24:54.337Z,491.00
2023-05-05T09:25:54.325Z,499.00
2023-05-05T09:26:54.308Z,500.00
2023-05-05T09:27:55.279Z,498.00
2023-05-05T09:28:54.292Z,508.00
2023-05-05T09:29:54.251Z,504.00
2023-05-05T09:30:55.295Z,513.00
2023-05-05T09:31:54.375Z,512.00
2023-05-05T09:32:55.410Z,528.00
2023-05-05T09:33:55.227Z,533.00
2023-05-05T09:34:54.236Z,544.00
2023-05-05T09:35:55.226Z,539.00
2023-05-05T09:36:55.232Z,552.00
2023-05-05T09:37:54.255Z,589.00
2023-05-05T09:38:54.260Z,616.00
2023-05-05T09:39:54.191Z,622.00
2023-05-05T09:40:55.236Z,620.00
2023-05-05T09:41:54.245Z,617.00
2023-05-05T09:42:54.205Z,613.00
2023-05-05T09:43:54.224Z,588.00
2023-05-05T09:44:54.160Z,596.00
2023-05-05T09:45:54.226Z,614.00
2023-05-05T09:46:54.156Z,672.00
2023-05-05T09:47:59.620Z,801.00
2023-05-05T09:48:55.293Z,804.00
